CYBG

CFB Bagotville Airport

Bagotville, Quebec, Canada
TAF CYBG 240230Z 2403/2424 08008KT P6SM BKN200 FM240800 09005KT P6SM FEW008 BKN200 PROB30 2408/2412 2SM BR BKN008 FM241200 06005KT P6SM FEW012 BKN200 TEMPO 2412/2415 BKN012 FM241500 06005KT P6SM BKN030 BECMG 2418/2420 32008KT RMK NXT FCST BY 240600Z
Issued Valid From Valid To
Oct-24 @ 02:30 UTC
(3 hours ago)
Oct-24 @ 03:00 UTC
(2 hours ago)
Oct-25 @ 00:00 UTC
(in 19 hours)
Oct-24 @ 03:00 to Oct-24 @ 08:00
TAF CYBG 240230Z 2403/2424 08008KT P6SM BKN200
Wind Visibility Clouds
80° at 8 knots Greater than 6 miles
  • Broken at 20,000' AGL
From Oct-24 @ 08:00 to Oct-24 @ 12:00
FM240800 09005KT P6SM FEW008 BKN200
Wind Visibility Clouds
90° at 5 knots Greater than 6 miles
  • Few at 800' AGL
  • Broken at 20,000' AGL
Probable  (Probability 30%) Oct-24 @ 08:00 to Oct-24 @ 12:00
PROB30 2408/2412 2SM BR BKN008
Visibility Clouds Conditions
2 miles
  • Broken at 800' AGL
  • Mist
Temporary Oct-24 @ 12:00 to Oct-24 @ 15:00
TEMPO 2412/2415 BKN012
Clouds
  • Broken at 1,200' AGL
From Oct-24 @ 12:00 to Oct-24 @ 15:00
FM241200 06005KT P6SM FEW012 BKN200
Wind Visibility Clouds
60° at 5 knots Greater than 6 miles
  • Few at 1,200' AGL
  • Broken at 20,000' AGL
From Oct-24 @ 15:00 to Oct-24 @ 18:00
FM241500 06005KT P6SM BKN030
Wind Visibility Clouds
60° at 5 knots Greater than 6 miles
  • Broken at 3,000' AGL
Becoming Oct-24 @ 18:00 to Oct-25 @ 00:00
BECMG 2418/2420 32008KT RMK NXT FCST BY 240600Z
Wind Visibility Clouds
320° at 8 knots Greater than 6 miles
  • Broken at 3,000' AGL
TAF CYBG 240230Z 2403/2424 08008KT P6SM BKN200 FM240800 09005KT P6SM FEW008 BKN200 PROB30 2408/2412 2SM BR BKN008 FM241200 06005KT P6SM FEW012 BKN200 TEMPO 2412/2415 BKN012 FM241500 06005KT P6SM BKN030 BECMG 2418/2420 32008KT RMK NXT FCST BY 240600Z
Issued Oct-24 @ 02:30 UTC
(3 hours ago)
Valid From Oct-24 @ 03:00 UTC
(2 hours ago)
Valid To Oct-25 @ 00:00 UTC
(in 19 hours)
Oct-24 @ 03:00 - Oct-24 @ 08:00
Wind Visibility
80° at 8 knots Greater than 6 miles
Clouds
  • Broken at 20,000' AGL
From Oct-24 @ 08:00 - Oct-24 @ 12:00
Wind Visibility
90° at 5 knots Greater than 6 miles
Clouds
  • Few at 800' AGL
  • Broken at 20,000' AGL
Probability 30% Probable Oct-24 @ 08:00 - Oct-24 @ 12:00
Clouds
  • Broken at 800' AGL
Conditions
  • Mist
Temporary Oct-24 @ 12:00 - Oct-24 @ 15:00
Clouds
  • Broken at 1,200' AGL
From Oct-24 @ 12:00 - Oct-24 @ 15:00
Wind Visibility
60° at 5 knots Greater than 6 miles
Clouds
  • Few at 1,200' AGL
  • Broken at 20,000' AGL
From Oct-24 @ 15:00 - Oct-24 @ 18:00
Wind Visibility
60° at 5 knots Greater than 6 miles
Clouds
  • Broken at 3,000' AGL
Becoming Oct-24 @ 18:00 - Oct-25 @ 00:00
Wind Visibility
320° at 8 knots Greater than 6 miles
Clouds
  • Broken at 3,000' AGL